createdAt,value
2023-03-04T00:00:48.195Z,58.41
2023-03-04T00:03:16.729Z,58.16
2023-03-04T00:05:45.535Z,57.74
2023-03-04T00:08:13.826Z,57.63
2023-03-04T00:10:42.308Z,57.35
2023-03-04T00:13:28.397Z,57.15
2023-03-04T00:15:56.878Z,57.30
2023-03-04T00:18:26.492Z,57.11
2023-03-04T00:20:55.708Z,57.20
2023-03-04T00:23:24.265Z,56.90
2023-03-04T00:25:53.155Z,56.79
2023-03-04T00:28:21.738Z,56.95
2023-03-04T00:30:50.236Z,56.99
2023-03-04T00:33:18.908Z,57.06
2023-03-04T00:35:47.297Z,57.30
2023-03-04T00:38:16.888Z,57.27
2023-03-04T00:40:45.367Z,57.43
2023-03-04T00:43:14.438Z,57.19
2023-03-04T00:45:43.002Z,56.04
2023-03-04T00:48:12.980Z,55.46
2023-03-04T00:50:42.668Z,55.33
2023-03-04T00:53:11.046Z,55.02
2023-03-04T00:55:42.086Z,54.84
2023-03-04T00:58:10.874Z,54.47
2023-03-04T01:00:41.300Z,54.12
2023-03-04T01:03:09.786Z,53.85
2023-03-04T01:05:39.081Z,53.77
2023-03-04T01:08:07.700Z,53.22
2023-03-04T01:10:39.522Z,53.14
2023-03-04T01:13:07.902Z,52.87
2023-03-04T01:15:36.695Z,52.79
2023-03-04T01:18:09.509Z,53.16
2023-03-04T01:20:38.372Z,52.83
2023-03-04T01:23:06.766Z,52.83
2023-03-04T01:25:35.433Z,52.87
2023-03-04T01:28:04.317Z,52.44
2023-03-04T01:30:36.501Z,52.34
2023-03-04T01:33:06.799Z,52.10
2023-03-04T01:35:36.630Z,51.66
2023-03-04T01:38:05.397Z,51.69
2023-03-04T01:40:33.791Z,51.78
2023-03-04T01:43:02.979Z,52.03
2023-03-04T01:45:31.869Z,52.17
2023-03-04T01:48:01.997Z,52.18
2023-03-04T01:50:33.029Z,52.63
2023-03-04T01:53:02.328Z,52.78
2023-03-04T01:55:31.012Z,52.69
2023-03-04T01:57:59.489Z,52.97
2023-03-04T02:00:32.689Z,53.15
2023-03-04T02:03:09.202Z,53.46
2023-03-04T02:05:41.420Z,53.62
2023-03-04T02:08:09.800Z,53.97
2023-03-04T02:10:38.698Z,53.90
2023-03-04T02:13:07.283Z,54.08
2023-03-04T02:15:35.791Z,53.79
2023-03-04T02:18:21.247Z,53.57
2023-03-04T02:20:53.091Z,53.56
2023-03-04T02:23:57.838Z,53.43
2023-03-04T02:26:30.629Z,53.64
2023-03-04T02:29:01.142Z,53.63
2023-03-04T02:31:36.247Z,53.80
2023-03-04T02:34:12.633Z,53.96
2023-03-04T02:36:41.216Z,53.87
2023-03-04T02:39:12.566Z,53.54
2023-03-04T02:41:41.401Z,53.51
2023-03-04T02:44:19.124Z,53.17
2023-03-04T02:46:48.009Z,53.41
2023-03-04T02:49:17.352Z,53.78
2023-03-04T02:51:45.924Z,53.81
2023-03-04T02:54:16.360Z,53.67
2023-03-04T02:56:49.244Z,53.60
2023-03-04T02:59:18.025Z,53.34
2023-03-04T03:01:47.883Z,53.15
2023-03-04T03:04:16.522Z,52.86
2023-03-04T03:06:45.933Z,52.60
2023-03-04T03:09:17.578Z,52.27
2023-03-04T03:11:46.365Z,52.16
2023-03-04T03:14:14.996Z,51.86
2023-03-04T03:16:43.738Z,51.70
2023-03-04T03:19:12.727Z,51.64
2023-03-04T03:21:41.617Z,51.61
2023-03-04T03:24:10.209Z,51.61
2023-03-04T03:26:40.215Z,51.74
2023-03-04T03:29:09.415Z,51.75
2023-03-04T03:31:40.037Z,51.75
2023-03-04T03:34:09.273Z,51.85
2023-03-04T03:36:39.048Z,51.78
2023-03-04T03:39:12.516Z,51.75
2023-03-04T03:41:42.258Z,51.74
2023-03-04T03:44:10.434Z,51.80
2023-03-04T03:46:40.554Z,51.81
2023-03-04T03:49:09.029Z,52.00
2023-03-04T03:51:38.329Z,52.03
2023-03-04T03:54:06.812Z,52.21
2023-03-04T03:56:40.411Z,52.44
2023-03-04T03:59:09.096Z,52.73
2023-03-04T04:01:38.015Z,53.01
2023-03-04T04:04:06.569Z,53.15
2023-03-04T04:06:34.948Z,53.18
2023-03-04T04:09:03.327Z,53.23
2023-03-04T04:11:32.113Z,53.34
2023-03-04T04:14:00.401Z,53.51
2023-03-04T04:16:28.917Z,53.78
2023-03-04T04:18:57.659Z,54.02
2023-03-04T04:21:26.766Z,53.99
2023-03-04T04:23:55.658Z,54.11
2023-03-04T04:26:24.039Z,53.99
2023-03-04T04:28:52.401Z,53.95
2023-03-04T04:31:21.009Z,53.87
2023-03-04T04:33:49.386Z,53.63
2023-03-04T04:36:17.943Z,53.65
2023-03-04T04:38:51.139Z,53.60
2023-03-04T04:41:25.770Z,53.52
2023-03-04T04:43:54.037Z,53.46
2023-03-04T04:46:22.665Z,53.31
2023-03-04T04:48:51.304Z,53.02
2023-03-04T04:51:19.698Z,52.79
2023-03-04T04:53:49.305Z,52.54
2023-03-04T04:56:21.370Z,52.21
2023-03-04T04:58:49.896Z,51.95
2023-03-04T05:01:18.359Z,52.03
2023-03-04T05:03:58.683Z,51.95
2023-03-04T05:06:27.457Z,51.97
2023-03-04T05:08:55.935Z,52.09
2023-03-04T05:11:24.622Z,52.23
2023-03-04T05:13:53.103Z,52.25
2023-03-04T05:16:21.713Z,52.15
2023-03-04T05:18:50.270Z,51.97
2023-03-04T05:21:18.760Z,51.87
2023-03-04T05:23:47.337Z,51.50
2023-03-04T05:26:17.093Z,51.29
2023-03-04T05:28:45.743Z,51.12
2023-03-04T05:31:14.189Z,51.18
2023-03-04T05:33:43.001Z,51.22
2023-03-04T05:36:11.587Z,51.20
2023-03-04T05:38:40.060Z,51.33
2023-03-04T05:41:08.953Z,51.36
2023-03-04T05:43:38.660Z,51.43
2023-03-04T05:46:07.692Z,51.40
2023-03-04T05:48:36.245Z,51.39
2023-03-04T05:51:05.340Z,51.36
2023-03-04T05:53:37.192Z,51.43
2023-03-04T05:56:08.747Z,51.34
2023-03-04T05:58:37.534Z,51.30
2023-03-04T06:01:11.232Z,51.18
2023-03-04T06:03:39.857Z,51.02
2023-03-04T06:06:08.407Z,50.95
2023-03-04T06:08:37.703Z,51.06
2023-03-04T06:11:06.402Z,50.86
2023-03-04T06:13:36.418Z,51.44
2023-03-04T06:16:05.622Z,51.67
2023-03-04T06:18:33.976Z,51.39
2023-03-04T06:21:07.174Z,50.61
2023-03-04T06:23:35.752Z,49.95
2023-03-04T06:26:04.251Z,49.24
2023-03-04T06:28:34.964Z,48.17
2023-03-04T06:31:03.514Z,47.24
2023-03-04T06:33:32.849Z,46.75
2023-03-04T06:36:01.639Z,46.16
2023-03-04T06:38:30.777Z,45.39
2023-03-04T06:41:06.717Z,44.78
2023-03-04T06:43:35.368Z,44.42
2023-03-04T06:46:07.535Z,44.45
2023-03-04T06:48:36.840Z,44.28
2023-03-04T06:54:24.594Z,43.80
2023-03-04T06:56:53.484Z,43.75
2023-03-04T06:59:22.373Z,43.57
2023-03-04T07:01:50.946Z,43.36
2023-03-04T07:04:19.392Z,43.20
2023-03-04T07:06:48.646Z,42.74
2023-03-04T07:09:19.059Z,42.39
2023-03-04T07:11:48.455Z,42.00
2023-03-04T07:14:18.572Z,41.76
2023-03-04T07:16:47.404Z,41.63
2023-03-04T07:19:16.044Z,41.46
2023-03-04T07:21:44.524Z,41.32
2023-03-04T07:24:14.040Z,41.28
2023-03-04T07:26:42.614Z,41.91
2023-03-04T07:29:13.764Z,41.80
2023-03-04T07:31:42.231Z,41.93
2023-03-04T07:34:13.380Z,41.91
2023-03-04T07:36:42.588Z,41.91
2023-03-04T07:39:13.435Z,42.22
2023-03-04T07:41:42.609Z,42.20
2023-03-04T07:44:13.296Z,42.58
2023-03-04T07:46:43.870Z,42.77
2023-03-04T07:49:13.922Z,42.57
2023-03-04T07:51:42.168Z,42.68
2023-03-04T07:54:10.754Z,42.72
2023-03-04T07:56:38.990Z,42.78
2023-03-04T07:59:08.074Z,42.61
2023-03-04T08:01:37.314Z,43.24
2023-03-04T08:04:06.555Z,44.06
2023-03-04T08:06:36.466Z,44.61
2023-03-04T08:09:09.248Z,45.42
2023-03-04T08:11:38.209Z,45.57
2023-03-04T08:14:07.910Z,45.87
2023-03-04T08:16:36.211Z,46.08
2023-03-04T08:19:05.846Z,45.93
2023-03-04T08:21:34.380Z,46.02
2023-03-04T08:24:08.788Z,46.26
2023-03-04T08:26:42.213Z,46.19
2023-03-04T08:29:16.517Z,46.02
2023-03-04T08:31:48.730Z,46.11
2023-03-04T08:34:19.001Z,46.12
2023-03-04T08:36:52.294Z,45.87
2023-03-04T08:39:21.183Z,45.35
2023-03-04T08:41:49.975Z,45.02
2023-03-04T08:44:18.552Z,44.49
2023-03-04T08:46:47.033Z,43.86
2023-03-04T08:49:18.586Z,43.85
2023-03-04T08:51:47.170Z,44.16
2023-03-04T08:54:15.958Z,43.85
2023-03-04T08:56:44.741Z,43.73
2023-03-04T08:59:13.948Z,43.51
2023-03-04T09:01:42.208Z,43.77
2023-03-04T09:04:11.422Z,44.53
2023-03-04T09:06:41.199Z,45.14
2023-03-04T09:09:09.911Z,45.13
2023-03-04T09:11:41.469Z,45.40
2023-03-04T09:14:10.249Z,45.84
2023-03-04T09:16:38.937Z,45.88
2023-03-04T09:19:07.549Z,45.91
2023-03-04T09:21:40.916Z,46.20
2023-03-04T09:24:09.395Z,46.38
2023-03-04T09:26:38.006Z,46.57
2023-03-04T09:29:07.627Z,46.34
2023-03-04T09:31:36.438Z,46.19
2023-03-04T09:34:06.738Z,45.92
2023-03-04T09:36:35.187Z,46.12
2023-03-04T09:39:07.756Z,46.09
2023-03-04T09:41:42.796Z,45.67
2023-03-04T09:44:15.878Z,45.67
2023-03-04T09:46:46.031Z,45.56
2023-03-04T09:49:14.685Z,44.99
2023-03-04T09:51:49.113Z,44.48
2023-03-04T09:54:26.798Z,44.25
2023-03-04T09:57:06.445Z,44.23
2023-03-04T09:59:43.730Z,43.97
2023-03-04T10:02:23.982Z,43.32
2023-03-04T10:04:53.635Z,43.19
2023-03-04T10:10:48.948Z,42.56
2023-03-04T10:13:22.517Z,42.75
2023-03-04T10:15:54.131Z,42.92
2023-03-04T10:18:37.106Z,42.93
2023-03-04T10:21:23.437Z,42.84
2023-03-04T10:23:53.816Z,42.68
2023-03-04T10:26:29.976Z,42.54
2023-03-04T10:28:58.349Z,42.54
2023-03-04T10:31:37.296Z,42.58
2023-03-04T10:34:07.260Z,42.55
2023-03-04T10:36:55.547Z,43.02
2023-03-04T10:39:42.543Z,43.69
2023-03-04T10:42:15.547Z,43.85
2023-03-04T10:44:52.789Z,43.80
2023-03-04T10:47:26.520Z,43.74
2023-03-04T10:50:01.069Z,43.93
2023-03-04T10:52:31.503Z,44.12
2023-03-04T10:55:01.389Z,44.04
2023-03-04T10:57:32.653Z,44.50
2023-03-04T11:00:01.107Z,44.68
2023-03-04T11:02:35.623Z,45.03
2023-03-04T11:05:17.922Z,45.39
2023-03-04T11:07:56.666Z,45.79
2023-03-04T11:10:27.395Z,45.97
2023-03-04T11:13:02.763Z,46.40
2023-03-04T11:15:31.821Z,46.66
2023-03-04T11:18:05.113Z,46.10
2023-03-04T11:20:36.660Z,46.17
2023-03-04T11:23:07.197Z,45.90
2023-03-04T11:25:49.390Z,46.29
2023-03-04T11:28:49.823Z,46.44
2023-03-04T11:31:26.014Z,46.83
2023-03-04T11:34:02.365Z,46.83
2023-03-04T11:36:37.287Z,46.97
2023-03-04T11:39:08.746Z,47.21
2023-03-04T11:41:39.378Z,47.25
2023-03-04T11:44:09.118Z,47.29
2023-03-04T11:46:55.601Z,47.54
2023-03-04T11:49:46.100Z,48.02
2023-03-04T11:52:17.451Z,48.11
2023-03-04T11:54:57.702Z,47.83
2023-03-04T11:57:42.563Z,47.77
2023-03-04T12:00:16.687Z,47.96
2023-03-04T12:02:50.786Z,47.87
2023-03-04T12:05:36.791Z,47.79
2023-03-04T12:08:22.520Z,48.01
2023-03-04T12:11:08.659Z,48.22
2023-03-04T12:14:02.431Z,48.08
2023-03-04T12:16:31.056Z,48.02
2023-03-04T12:19:17.318Z,47.87
2023-03-04T12:22:23.380Z,48.18
2023-03-04T12:25:10.834Z,48.66
2023-03-04T12:27:48.600Z,49.14
2023-03-04T12:30:47.815Z,49.66
2023-03-04T12:33:35.856Z,49.23
2023-03-04T12:36:07.492Z,49.20
2023-03-04T12:39:18.241Z,49.35
2023-03-04T12:41:50.634Z,49.32
2023-03-04T12:44:20.317Z,49.51
2023-03-04T12:47:11.804Z,49.46
2023-03-04T12:50:20.236Z,49.96
2023-03-04T12:53:30.577Z,50.23
2023-03-04T12:55:59.034Z,50.73
2023-03-04T12:58:30.003Z,51.23
2023-03-04T13:01:23.932Z,51.58
2023-03-04T13:04:11.410Z,51.55
2023-03-04T13:07:01.156Z,51.83
2023-03-04T13:09:42.422Z,52.21
2023-03-04T13:12:25.654Z,52.42
2023-03-04T13:15:10.135Z,52.57
2023-03-04T13:18:00.432Z,52.82
2023-03-04T13:20:31.541Z,53.20
2023-03-04T13:23:14.985Z,53.43
2023-03-04T13:25:50.808Z,53.74
2023-03-04T13:28:32.316Z,54.04
2023-03-04T13:31:09.960Z,54.30
2023-03-04T13:33:39.438Z,54.62
2023-03-04T13:36:26.629Z,54.85
2023-03-04T13:39:03.651Z,55.09
2023-03-04T13:41:51.792Z,55.13
2023-03-04T13:44:36.620Z,55.39
2023-03-04T13:47:27.887Z,55.62
2023-03-04T13:50:30.126Z,55.90
2023-03-04T13:53:01.354Z,56.22
2023-03-04T13:55:41.319Z,56.42
2023-03-04T13:58:18.253Z,56.50
2023-03-04T14:00:52.645Z,56.62
2023-03-04T14:03:26.214Z,56.75
2023-03-04T14:06:10.854Z,56.96
2023-03-04T14:08:39.433Z,57.19
2023-03-04T14:11:39.787Z,57.19
2023-03-04T14:14:12.341Z,57.27
2023-03-04T14:16:50.477Z,57.44
2023-03-04T14:19:36.247Z,57.53
2023-03-04T14:22:19.559Z,57.69
2023-03-04T14:25:04.272Z,57.84
2023-03-04T14:27:36.251Z,57.94
2023-03-04T14:30:05.912Z,58.09
2023-03-04T14:32:34.182Z,58.10
2023-03-04T14:35:07.347Z,58.21
2023-03-04T14:37:49.880Z,58.33
2023-03-04T14:40:29.616Z,58.50
2023-03-04T14:43:01.815Z,58.68
2023-03-04T14:45:30.329Z,58.83
2023-03-04T14:48:01.907Z,59.04
2023-03-04T14:50:30.499Z,59.05
2023-03-04T14:53:11.183Z,59.24
2023-03-04T14:56:04.739Z,59.30
2023-03-04T14:58:38.060Z,59.47
2023-03-04T15:01:17.732Z,59.53
2023-03-04T15:04:08.307Z,59.57
2023-03-04T15:07:01.744Z,59.65
2023-03-04T15:09:30.730Z,59.75
2023-03-04T15:12:04.507Z,59.89
2023-03-04T15:14:46.338Z,60.23
2023-03-04T15:17:42.784Z,60.27
2023-03-04T15:20:11.344Z,60.50
2023-03-04T15:22:47.405Z,60.72
2023-03-04T15:25:16.315Z,60.77
2023-03-04T15:27:45.947Z,60.85
2023-03-04T15:30:19.597Z,60.96
2023-03-04T15:32:51.058Z,61.12
2023-03-04T15:35:19.806Z,61.31
2023-03-04T15:37:52.522Z,61.55
2023-03-04T15:40:24.074Z,61.69
2023-03-04T15:42:53.880Z,61.90
2023-03-04T15:45:24.621Z,62.05
2023-03-04T15:47:53.006Z,62.18
2023-03-04T15:50:21.902Z,62.33
2023-03-04T15:52:51.244Z,62.60
2023-03-04T15:55:21.512Z,62.77
2023-03-04T15:57:52.771Z,62.86
2023-03-04T16:00:21.841Z,62.90
2023-03-04T16:02:50.564Z,62.94
2023-03-04T16:05:19.014Z,62.97
2023-03-04T16:07:49.765Z,63.02
2023-03-04T16:10:20.964Z,63.11
2023-03-04T16:12:49.373Z,63.12
2023-03-04T16:15:28.392Z,63.21
2023-03-04T16:17:57.212Z,63.26
2023-03-04T16:20:29.055Z,63.42
2023-03-04T16:23:01.233Z,63.55
2023-03-04T16:25:31.209Z,63.81
2023-03-04T16:28:02.915Z,63.88
2023-03-04T16:30:31.888Z,63.96
2023-03-04T16:33:01.084Z,63.96
2023-03-04T16:35:30.787Z,64.11
2023-03-04T16:37:59.471Z,64.23
2023-03-04T16:40:29.814Z,64.38
2023-03-04T16:42:59.092Z,64.64
2023-03-04T16:45:30.460Z,64.64
2023-03-04T16:47:58.822Z,64.66
2023-03-04T16:50:28.445Z,64.55
2023-03-04T16:52:57.221Z,64.58
2023-03-04T16:55:27.867Z,64.63
2023-03-04T16:57:56.212Z,64.83
2023-03-04T17:00:25.730Z,64.95
2023-03-04T17:02:58.777Z,65.02
2023-03-04T17:05:29.721Z,65.12
2023-03-04T17:07:59.820Z,65.19
2023-03-04T17:10:28.556Z,65.37
2023-03-04T17:12:57.863Z,65.39
2023-03-04T17:15:27.468Z,65.43
2023-03-04T17:17:55.903Z,65.42
2023-03-04T17:20:28.842Z,65.37
2023-03-04T17:22:57.522Z,65.49
2023-03-04T17:25:25.894Z,65.48
2023-03-04T17:27:54.371Z,65.38
2023-03-04T17:30:23.881Z,65.45
2023-03-04T17:32:54.622Z,65.39
2023-03-04T17:35:25.906Z,65.34
2023-03-04T17:37:54.233Z,65.23
2023-03-04T17:40:24.356Z,65.23
2023-03-04T17:42:52.730Z,65.28
2023-03-04T17:45:21.199Z,65.31
2023-03-04T17:47:50.005Z,65.37
2023-03-04T17:50:22.782Z,65.41
2023-03-04T17:52:51.779Z,65.48
2023-03-04T17:55:20.261Z,65.51
2023-03-04T17:57:53.144Z,65.48
2023-03-04T18:00:22.043Z,65.54
2023-03-04T18:02:50.300Z,65.42
2023-03-04T18:05:18.694Z,65.49
2023-03-04T18:07:47.062Z,65.36
2023-03-04T18:10:17.915Z,65.32
2023-03-04T18:12:47.711Z,65.39
2023-03-04T18:15:17.407Z,65.35
2023-03-04T18:17:46.414Z,65.29
2023-03-04T18:20:15.213Z,65.24
2023-03-04T18:22:44.907Z,65.19
2023-03-04T18:25:13.797Z,65.07
2023-03-04T18:27:42.495Z,65.10
2023-03-04T18:30:13.649Z,65.01
2023-03-04T18:32:51.963Z,64.96
2023-03-04T18:35:22.710Z,65.00
2023-03-04T18:37:51.767Z,64.83
2023-03-04T18:40:20.340Z,64.71
2023-03-04T18:42:48.934Z,64.56
2023-03-04T18:45:21.723Z,64.41
2023-03-04T18:47:51.543Z,64.26
2023-03-04T18:50:22.259Z,64.06
2023-03-04T18:52:55.042Z,63.95
2023-03-04T18:55:23.627Z,63.87
2023-03-04T18:57:53.230Z,63.88
2023-03-04T19:00:22.549Z,63.73
2023-03-04T19:02:57.365Z,63.62
2023-03-04T19:05:27.778Z,63.56
2023-03-04T19:07:56.476Z,63.59
2023-03-04T19:10:26.192Z,63.57
2023-03-04T19:12:57.632Z,63.56
2023-03-04T19:15:26.321Z,63.36
2023-03-04T19:17:55.209Z,63.39
2023-03-04T19:20:23.798Z,63.70
2023-03-04T19:22:52.478Z,63.88
2023-03-04T19:25:21.168Z,63.52
2023-03-04T19:27:51.691Z,63.49
2023-03-04T19:30:20.279Z,63.24
2023-03-04T19:32:49.372Z,62.95
2023-03-04T19:35:18.428Z,63.00
2023-03-04T19:37:46.742Z,62.91
2023-03-04T19:40:15.445Z,62.97
2023-03-04T19:42:43.808Z,62.88
2023-03-04T19:45:12.180Z,62.75
2023-03-04T19:47:41.592Z,62.87
2023-03-04T19:50:16.522Z,63.00
2023-03-04T19:52:45.000Z,62.92
2023-03-04T19:55:20.747Z,62.69
2023-03-04T19:57:49.430Z,62.64
2023-03-04T20:00:18.687Z,62.86
2023-03-04T20:02:49.461Z,62.91
2023-03-04T20:05:18.273Z,62.88
2023-03-04T20:07:50.315Z,62.88
2023-03-04T20:10:19.827Z,62.83
2023-03-04T20:12:48.196Z,62.86
2023-03-04T20:15:16.780Z,62.93
2023-03-04T20:17:45.464Z,62.70
2023-03-04T20:20:14.658Z,62.68
2023-03-04T20:22:44.688Z,62.75
2023-03-04T20:25:13.770Z,62.72
2023-03-04T20:27:43.376Z,62.74
2023-03-04T20:30:12.474Z,62.69
2023-03-04T20:32:41.168Z,62.70
2023-03-04T20:35:14.251Z,62.55
2023-03-04T20:37:42.628Z,62.49
2023-03-04T20:40:12.644Z,62.54
2023-03-04T20:42:40.914Z,62.57
2023-03-04T20:45:12.273Z,62.45
2023-03-04T20:47:41.055Z,62.39
2023-03-04T20:50:11.267Z,62.34
2023-03-04T20:52:42.107Z,62.25
2023-03-04T20:55:11.002Z,62.15
2023-03-04T20:57:40.315Z,62.04
2023-03-04T21:00:10.006Z,61.98
2023-03-04T21:02:40.226Z,61.94
2023-03-04T21:05:09.327Z,62.05
2023-03-04T21:07:37.658Z,62.26
2023-03-04T21:10:08.803Z,62.48
2023-03-04T21:12:37.324Z,62.56
2023-03-04T21:15:08.936Z,62.68
2023-03-04T21:17:40.123Z,62.85
2023-03-04T21:20:09.369Z,62.97
2023-03-04T21:22:37.907Z,63.25
2023-03-04T21:25:07.411Z,63.29
2023-03-04T21:27:42.762Z,63.32
2023-03-04T21:30:12.361Z,63.43
2023-03-04T21:32:40.748Z,63.43
2023-03-04T21:35:11.472Z,63.50
2023-03-04T21:37:42.009Z,63.52
2023-03-04T21:40:11.731Z,63.44
2023-03-04T21:42:40.179Z,63.52
2023-03-04T21:45:09.946Z,63.57
2023-03-04T21:47:38.922Z,63.56
2023-03-04T21:50:07.914Z,63.53
2023-03-04T21:52:37.724Z,63.47
2023-03-04T21:55:06.668Z,63.43
2023-03-04T21:57:36.426Z,63.39
2023-03-04T22:00:06.598Z,63.30
2023-03-04T22:02:40.452Z,63.24
2023-03-04T22:05:09.860Z,63.11
2023-03-04T22:07:38.131Z,62.98
2023-03-04T22:10:07.645Z,62.88
2023-03-04T22:12:36.630Z,62.75
2023-03-04T22:15:05.933Z,62.80
2023-03-04T22:17:35.411Z,62.65
2023-03-04T22:20:04.840Z,62.47
2023-03-04T22:22:36.392Z,62.40
2023-03-04T22:25:07.004Z,62.29
2023-03-04T22:27:35.406Z,62.25
2023-03-04T22:30:04.729Z,62.19
2023-03-04T22:32:33.362Z,62.06
2023-03-04T22:35:02.283Z,61.99
2023-03-04T22:37:30.874Z,61.90
2023-03-04T22:40:00.289Z,61.74
2023-03-04T22:42:28.854Z,61.55
2023-03-04T22:44:57.557Z,61.53
2023-03-04T22:47:25.816Z,61.46
2023-03-04T22:49:54.294Z,61.38
2023-03-04T22:52:28.837Z,61.29
2023-03-04T22:54:57.500Z,61.21
2023-03-04T22:57:26.078Z,61.17
2023-03-04T22:59:55.079Z,61.02
2023-03-04T23:02:24.561Z,61.08
2023-03-04T23:04:53.256Z,60.99
2023-03-04T23:07:22.047Z,60.73
2023-03-04T23:09:50.422Z,60.67
2023-03-04T23:12:18.905Z,60.43
2023-03-04T23:14:47.315Z,60.30
2023-03-04T23:17:15.966Z,60.18
2023-03-04T23:19:44.448Z,60.09
2023-03-04T23:22:17.737Z,59.93
2023-03-04T23:24:46.120Z,59.76
2023-03-04T23:27:14.701Z,59.73
2023-03-04T23:29:43.997Z,59.67
2023-03-04T23:32:12.505Z,59.63
2023-03-04T23:34:44.379Z,59.54
2023-03-04T23:37:12.733Z,59.30
2023-03-04T23:39:41.002Z,59.20
2023-03-04T23:42:09.478Z,58.90
2023-03-04T23:44:38.063Z,58.77
2023-03-04T23:47:08.280Z,58.60
2023-03-04T23:49:37.071Z,58.54
2023-03-04T23:52:06.721Z,58.53
2023-03-04T23:54:35.257Z,58.55
2023-03-04T23:57:03.745Z,58.61
2023-03-04T23:59:33.133Z,58.54
